createdAt,value
2024-03-02T00:00:41.768Z,81.08
2024-03-02T00:03:11.350Z,81.06
2024-03-02T00:05:40.172Z,80.77
2024-03-02T00:08:09.603Z,80.19
2024-03-02T00:10:41.014Z,78.98
2024-03-02T00:13:09.074Z,79.51
2024-03-02T00:15:44.378Z,79.41
2024-03-02T00:18:14.710Z,79.43
2024-03-02T00:20:43.721Z,79.47
2024-03-02T00:23:13.936Z,78.94
2024-03-02T00:25:43.796Z,78.95
2024-03-02T00:28:21.234Z,79.89
2024-03-02T00:31:00.250Z,78.71
2024-03-02T00:33:33.974Z,80.40
2024-03-02T00:36:04.210Z,79.42
2024-03-02T00:38:32.307Z,79.43
2024-03-02T00:41:00.964Z,79.15
2024-03-02T00:43:47.613Z,78.60
2024-03-02T00:46:18.599Z,79.13
2024-03-02T00:48:55.404Z,78.32
2024-03-02T00:51:26.170Z,78.18
2024-03-02T00:53:56.309Z,78.04
2024-03-02T00:56:24.271Z,78.48
2024-03-02T00:58:52.348Z,78.44
2024-03-02T01:01:20.769Z,78.16
2024-03-02T01:03:48.553Z,78.45
2024-03-02T01:06:16.367Z,78.45
2024-03-02T01:08:45.373Z,77.24
2024-03-02T01:11:13.098Z,77.16
2024-03-02T01:13:40.672Z,79.29
2024-03-02T01:16:08.291Z,78.99
2024-03-02T01:18:35.814Z,79.19
2024-03-02T01:21:03.304Z,78.61
2024-03-02T01:23:30.802Z,80.17
2024-03-02T01:25:59.542Z,80.61
2024-03-02T01:28:26.959Z,80.14
2024-03-02T01:30:54.434Z,81.11
2024-03-02T01:33:22.417Z,80.31
2024-03-02T01:35:49.985Z,79.62
2024-03-02T01:38:17.417Z,78.68
2024-03-02T01:40:45.849Z,78.64
2024-03-02T01:43:14.710Z,77.96
2024-03-02T01:45:42.278Z,78.67
2024-03-02T01:48:10.060Z,78.06
2024-03-02T01:50:38.090Z,77.96
2024-03-02T01:53:05.760Z,77.38
2024-03-02T01:55:34.206Z,77.29
2024-03-02T01:58:02.204Z,77.33
2024-03-02T02:00:31.335Z,76.96
2024-03-02T02:02:59.203Z,77.39
2024-03-02T02:05:26.783Z,77.51
2024-03-02T02:07:54.227Z,79.58
2024-03-02T02:10:21.672Z,79.01
2024-03-02T02:12:49.141Z,78.49
2024-03-02T02:15:29.785Z,80.45
2024-03-02T02:18:00.452Z,81.55
2024-03-02T02:20:28.517Z,79.57
2024-03-02T02:22:58.621Z,78.75
2024-03-02T02:25:26.187Z,78.44
2024-03-02T02:27:54.319Z,78.10
2024-03-02T02:30:23.053Z,79.15
2024-03-02T02:32:50.839Z,78.35
2024-03-02T02:35:18.392Z,78.37
2024-03-02T02:37:47.371Z,77.87
2024-03-02T02:40:16.850Z,77.35
2024-03-02T02:42:44.432Z,77.27
2024-03-02T02:45:14.209Z,77.14
2024-03-02T02:47:41.816Z,77.60
2024-03-02T02:50:10.163Z,77.42
2024-03-02T02:52:40.453Z,76.87
2024-03-02T02:55:10.057Z,76.92
2024-03-02T02:57:40.758Z,75.91
2024-03-02T03:00:15.028Z,76.27
2024-03-02T03:02:43.664Z,75.85
2024-03-02T03:05:12.294Z,76.64
2024-03-02T03:07:41.072Z,76.69
2024-03-02T03:10:09.808Z,76.33
2024-03-02T03:12:39.161Z,75.92
2024-03-02T03:15:08.149Z,76.54
2024-03-02T03:17:36.089Z,76.92
2024-03-02T03:20:05.315Z,75.92
2024-03-02T03:22:33.256Z,76.13
2024-03-02T03:25:01.110Z,76.18
2024-03-02T03:27:28.788Z,77.03
2024-03-02T03:29:57.717Z,77.29
2024-03-02T03:32:25.892Z,77.34
2024-03-02T03:34:53.377Z,76.65
2024-03-02T03:37:20.814Z,77.59
2024-03-02T03:39:48.243Z,78.04
2024-03-02T03:42:15.731Z,78.57
2024-03-02T03:44:43.338Z,78.09
2024-03-02T03:47:12.089Z,77.03
2024-03-02T03:49:39.494Z,78.04
2024-03-02T03:52:07.012Z,77.30
2024-03-02T03:54:34.469Z,77.80
2024-03-02T03:57:02.029Z,77.13
2024-03-02T03:59:29.435Z,76.56
2024-03-02T04:01:56.882Z,77.14
2024-03-02T04:04:25.675Z,77.13
2024-03-02T04:06:53.074Z,79.00
2024-03-02T04:09:20.537Z,77.57
2024-03-02T04:11:48.077Z,80.09
2024-03-02T04:14:15.524Z,80.13
2024-03-02T04:16:42.913Z,79.92
2024-03-02T04:19:10.352Z,79.48
2024-03-02T04:21:39.194Z,78.63
2024-03-02T04:24:07.208Z,77.42
2024-03-02T04:26:34.596Z,77.42
2024-03-02T04:29:02.897Z,79.25
2024-03-02T04:31:30.733Z,80.58
2024-03-02T04:33:58.246Z,79.32
2024-03-02T04:36:25.748Z,78.64
2024-03-02T04:38:54.533Z,79.23
2024-03-02T04:41:21.956Z,78.64
2024-03-02T04:43:49.409Z,77.88
2024-03-02T04:46:16.823Z,77.17
2024-03-02T04:48:44.282Z,78.07
2024-03-02T04:51:12.234Z,77.45
2024-03-02T04:53:39.659Z,79.19
2024-03-02T04:56:26.187Z,80.31
2024-03-02T04:58:53.628Z,78.21
2024-03-02T05:01:21.144Z,78.43
2024-03-02T05:03:48.627Z,77.41
2024-03-02T05:06:16.141Z,78.44
2024-03-02T05:08:45.819Z,78.18
2024-03-02T05:11:40.123Z,77.92
2024-03-02T05:14:08.292Z,79.69
2024-03-02T05:16:36.046Z,79.04
2024-03-02T05:19:03.589Z,78.77
2024-03-02T05:21:31.094Z,79.93
2024-03-02T05:23:58.555Z,77.95
2024-03-02T05:26:27.949Z,77.74
2024-03-02T05:28:55.357Z,77.48
2024-03-02T05:31:22.794Z,78.05
2024-03-02T05:33:52.941Z,77.30
2024-03-02T05:36:22.719Z,76.99
2024-03-02T05:38:50.104Z,76.91
2024-03-02T05:41:17.597Z,76.20
2024-03-02T05:43:46.373Z,76.22
2024-03-02T05:46:14.020Z,77.03
2024-03-02T05:48:41.436Z,76.67
2024-03-02T05:51:08.891Z,75.99
2024-03-02T05:53:39.077Z,76.35
2024-03-02T05:56:07.204Z,75.71
2024-03-02T05:58:47.361Z,75.76
2024-03-02T06:01:16.139Z,75.21
2024-03-02T06:03:43.800Z,75.02
2024-03-02T06:06:11.557Z,74.81
2024-03-02T06:08:38.968Z,75.03
2024-03-02T06:11:06.448Z,74.91
2024-03-02T06:13:33.886Z,75.06
2024-03-02T06:16:01.400Z,75.53
2024-03-02T06:18:30.164Z,74.63
2024-03-02T06:20:57.601Z,74.36
2024-03-02T06:23:25.028Z,74.55
2024-03-02T06:25:52.418Z,75.50
2024-03-02T06:28:19.852Z,75.27
2024-03-02T06:30:47.302Z,75.33
2024-03-02T06:33:14.823Z,76.07
2024-03-02T06:35:43.632Z,75.17
2024-03-02T06:38:11.055Z,75.95
2024-03-02T06:40:39.488Z,75.30
2024-03-02T06:43:07.001Z,74.85
2024-03-02T06:45:35.704Z,75.16
2024-03-02T06:48:03.168Z,75.29
2024-03-02T06:50:30.957Z,73.59
2024-03-02T06:52:59.704Z,74.77
2024-03-02T06:55:27.153Z,74.47
2024-03-02T06:57:54.915Z,73.34
2024-03-02T07:00:22.631Z,73.80
2024-03-02T07:02:50.707Z,73.17
2024-03-02T07:05:18.172Z,74.16
2024-03-02T07:07:45.607Z,73.08
2024-03-02T07:10:14.366Z,74.85
2024-03-02T07:12:41.798Z,73.05
2024-03-02T07:15:19.780Z,72.42
2024-03-02T07:17:47.295Z,73.82
2024-03-02T07:20:14.799Z,72.79
2024-03-02T07:22:44.832Z,72.52
2024-03-02T07:27:45.115Z,71.74
2024-03-02T07:30:17.232Z,72.14
2024-03-02T07:32:46.717Z,71.96
2024-03-02T07:35:15.130Z,72.78
2024-03-02T07:37:43.785Z,74.28
2024-03-02T07:40:13.157Z,73.40
2024-03-02T07:42:42.496Z,72.33
2024-03-02T07:45:10.627Z,71.89
2024-03-02T07:47:38.443Z,71.50
2024-03-02T07:50:08.135Z,71.90
2024-03-02T07:52:35.605Z,72.29
2024-03-02T07:55:03.005Z,72.10
2024-03-02T07:57:30.541Z,72.20
2024-03-02T08:00:00.624Z,71.71
2024-03-02T08:02:28.288Z,72.26
2024-03-02T08:04:55.817Z,72.75
2024-03-02T08:07:23.318Z,72.40
2024-03-02T08:09:50.806Z,72.22
2024-03-02T08:12:19.496Z,71.67
2024-03-02T08:14:46.996Z,72.19
2024-03-02T08:17:15.778Z,71.89
2024-03-02T08:19:43.304Z,71.88
2024-03-02T08:22:10.843Z,72.15
2024-03-02T08:24:38.468Z,73.18
2024-03-02T08:27:06.367Z,72.50
2024-03-02T08:29:33.843Z,72.06
2024-03-02T08:32:01.358Z,71.45
2024-03-02T08:34:30.092Z,70.84
2024-03-02T08:36:57.577Z,70.25
2024-03-02T08:39:25.173Z,71.00
2024-03-02T08:41:52.719Z,71.80
2024-03-02T08:44:20.350Z,71.57
2024-03-02T08:46:48.294Z,71.62
2024-03-02T08:49:16.008Z,71.69
2024-03-02T08:51:45.009Z,70.77
2024-03-02T08:54:12.510Z,70.25
2024-03-02T08:56:39.941Z,70.68
2024-03-02T08:59:07.406Z,72.11
2024-03-02T09:01:35.085Z,68.71
2024-03-02T09:04:02.655Z,68.88
2024-03-02T09:06:30.088Z,70.89
2024-03-02T09:08:58.825Z,69.83
2024-03-02T09:11:26.293Z,67.44
2024-03-02T09:13:54.110Z,66.94
2024-03-02T09:16:21.662Z,66.95
2024-03-02T09:18:49.252Z,67.13
2024-03-02T09:21:16.877Z,66.78
2024-03-02T09:23:46.760Z,64.68
2024-03-02T09:26:15.555Z,65.48
2024-03-02T09:28:44.797Z,64.99
2024-03-02T09:31:13.022Z,65.27
2024-03-02T09:33:41.163Z,65.12
2024-03-02T09:36:19.236Z,67.52
2024-03-02T09:38:46.722Z,66.91
2024-03-02T09:41:16.342Z,65.72
2024-03-02T09:43:44.107Z,66.42
2024-03-02T09:46:12.061Z,66.22
2024-03-02T09:48:40.002Z,66.82
2024-03-02T09:51:07.567Z,65.94
2024-03-02T09:53:36.071Z,65.89
2024-03-02T09:56:03.608Z,65.75
2024-03-02T09:58:32.898Z,66.11
2024-03-02T10:01:00.418Z,66.38
2024-03-02T10:03:30.951Z,66.08
2024-03-02T10:05:58.382Z,66.24
2024-03-02T10:08:25.955Z,65.19
2024-03-02T10:10:53.400Z,65.04
2024-03-02T10:13:20.869Z,65.08
2024-03-02T10:15:49.708Z,64.75
2024-03-02T10:18:29.221Z,64.69
2024-03-02T10:20:56.729Z,63.76
2024-03-02T10:23:26.359Z,66.54
2024-03-02T10:25:58.287Z,63.85
2024-03-02T10:28:29.048Z,64.51
2024-03-02T10:30:57.986Z,63.46
2024-03-02T10:33:26.339Z,60.92
2024-03-02T10:35:54.099Z,61.61
2024-03-02T10:38:22.200Z,59.99
2024-03-02T10:40:50.060Z,60.49
2024-03-02T10:43:17.944Z,58.75
2024-03-02T10:45:48.031Z,60.65
2024-03-02T10:48:16.874Z,58.82
2024-03-02T10:50:44.323Z,57.73
2024-03-02T10:53:11.766Z,56.58
2024-03-02T10:55:40.209Z,55.76
2024-03-02T10:58:09.023Z,54.36
2024-03-02T11:00:38.390Z,52.96
2024-03-02T11:03:07.816Z,53.95
2024-03-02T11:05:40.374Z,53.03
2024-03-02T11:08:09.349Z,52.27
2024-03-02T11:10:38.927Z,54.77
2024-03-02T11:13:11.301Z,56.35
2024-03-02T11:15:40.058Z,53.58
2024-03-02T11:18:10.080Z,53.90
2024-03-02T11:20:41.087Z,57.37
2024-03-02T11:23:09.900Z,56.21
2024-03-02T11:25:38.450Z,54.41
2024-03-02T11:28:07.734Z,57.15
2024-03-02T11:30:54.408Z,54.66
2024-03-02T11:33:28.487Z,52.50
2024-03-02T11:35:59.195Z,54.46
2024-03-02T11:38:34.390Z,52.17
2024-03-02T11:41:03.910Z,51.90
2024-03-02T11:43:32.000Z,51.65
2024-03-02T11:46:00.373Z,52.28
2024-03-02T11:48:28.526Z,51.74
2024-03-02T11:51:00.481Z,51.65
2024-03-02T11:53:32.237Z,53.52
2024-03-02T11:56:02.650Z,52.46
2024-03-02T11:58:30.465Z,53.98
2024-03-02T12:00:58.933Z,52.21
2024-03-02T12:03:28.063Z,52.13
2024-03-02T12:05:57.306Z,52.48
2024-03-02T12:08:25.106Z,52.50
2024-03-02T12:10:58.983Z,54.54
2024-03-02T12:13:26.517Z,53.33
2024-03-02T12:15:56.908Z,54.25
2024-03-02T12:18:24.451Z,54.11
2024-03-02T12:20:53.696Z,54.55
2024-03-02T12:23:23.163Z,55.08
2024-03-02T12:25:51.074Z,55.23
2024-03-02T12:28:18.726Z,56.75
2024-03-02T12:30:46.657Z,56.16
2024-03-02T12:33:14.512Z,55.20
2024-03-02T12:35:42.566Z,55.39
2024-03-02T12:38:10.067Z,56.35
2024-03-02T12:40:39.057Z,57.05
2024-03-02T12:43:07.552Z,56.88
2024-03-02T12:45:36.030Z,55.32
2024-03-02T12:48:04.365Z,55.37
2024-03-02T12:50:32.796Z,54.97
2024-03-02T12:53:00.253Z,54.50
2024-03-02T12:55:28.845Z,54.29
2024-03-02T12:57:58.313Z,53.94
2024-03-02T13:00:28.072Z,51.86
2024-03-02T13:03:03.006Z,51.39
2024-03-02T13:05:32.321Z,50.30
2024-03-02T13:08:00.598Z,51.39
2024-03-02T13:10:28.055Z,51.61
2024-03-02T13:12:58.176Z,50.32
2024-03-02T13:15:25.781Z,51.45
2024-03-02T13:17:53.246Z,51.98
2024-03-02T13:20:22.876Z,51.99
2024-03-02T13:22:51.446Z,52.14
2024-03-02T13:25:18.874Z,51.96
2024-03-02T13:27:46.428Z,51.56
2024-03-02T13:30:15.430Z,53.22
2024-03-02T13:32:42.883Z,53.48
2024-03-02T13:35:12.389Z,54.13
2024-03-02T13:37:40.587Z,52.75
2024-03-02T13:40:14.209Z,53.02
2024-03-02T13:42:42.059Z,54.17
2024-03-02T13:45:10.140Z,54.70
2024-03-02T13:47:38.926Z,53.54
2024-03-02T13:50:08.335Z,53.64
2024-03-02T13:52:35.842Z,53.16
2024-03-02T13:55:03.587Z,53.75
2024-03-02T13:57:31.947Z,53.96
2024-03-02T13:59:59.448Z,54.11
2024-03-02T14:02:27.044Z,53.96
2024-03-02T14:04:56.314Z,54.53
2024-03-02T14:07:23.727Z,54.51
2024-03-02T14:09:51.312Z,55.50
2024-03-02T14:12:19.018Z,54.96
2024-03-02T14:14:46.511Z,55.23
2024-03-02T14:17:16.618Z,56.02
2024-03-02T14:19:44.113Z,54.78
2024-03-02T14:22:14.851Z,54.70
2024-03-02T14:24:44.403Z,55.22
2024-03-02T14:27:20.480Z,56.63
2024-03-02T14:29:56.199Z,55.24
2024-03-02T14:32:23.649Z,54.77
2024-03-02T14:34:51.178Z,54.92
2024-03-02T14:37:20.081Z,54.41
2024-03-02T14:39:47.570Z,53.50
2024-03-02T14:42:15.085Z,53.61
2024-03-02T14:44:42.506Z,53.17
2024-03-02T14:47:09.988Z,53.81
2024-03-02T14:49:41.318Z,53.36
2024-03-02T14:52:10.108Z,53.52
2024-03-02T14:54:39.192Z,53.47
2024-03-02T14:57:06.734Z,53.82
2024-03-02T14:59:35.475Z,53.83
2024-03-02T15:02:03.428Z,55.14
2024-03-02T15:04:30.985Z,54.27
2024-03-02T15:06:58.404Z,55.22
2024-03-02T15:09:25.873Z,54.38
2024-03-02T15:11:54.671Z,54.53
2024-03-02T15:14:22.739Z,54.42
2024-03-02T15:16:50.337Z,54.97
2024-03-02T15:19:17.804Z,55.38
2024-03-02T15:21:45.323Z,54.92
2024-03-02T15:24:12.732Z,54.78
2024-03-02T15:26:40.189Z,55.09
2024-03-02T15:29:08.912Z,54.88
2024-03-02T15:31:36.313Z,55.43
2024-03-02T15:34:04.043Z,56.65
2024-03-02T15:36:31.582Z,55.02
2024-03-02T15:38:59.348Z,55.13
2024-03-02T15:41:26.802Z,55.33
2024-03-02T15:43:54.218Z,53.95
2024-03-02T15:46:23.108Z,54.46
2024-03-02T15:48:50.533Z,54.47
2024-03-02T15:51:18.050Z,56.94
2024-03-02T15:53:45.479Z,56.33
2024-03-02T15:56:13.008Z,57.02
2024-03-02T15:58:40.473Z,56.29
2024-03-02T16:01:08.155Z,55.61
2024-03-02T16:03:37.148Z,55.75
2024-03-02T16:06:04.937Z,56.02
2024-03-02T16:08:32.439Z,55.34
2024-03-02T16:11:01.721Z,55.59
2024-03-02T16:13:31.925Z,56.13
2024-03-02T16:15:59.677Z,56.57
2024-03-02T16:18:27.139Z,56.26
2024-03-02T16:20:56.118Z,56.78
2024-03-02T16:23:23.663Z,56.16
2024-03-02T16:25:51.087Z,55.70
2024-03-02T16:28:18.559Z,56.44
2024-03-02T16:30:46.245Z,55.96
2024-03-02T16:33:13.734Z,56.11
2024-03-02T16:35:41.158Z,56.20
2024-03-02T16:38:11.443Z,56.45
2024-03-02T16:40:39.772Z,55.79
2024-03-02T16:43:07.671Z,56.05
2024-03-02T16:45:35.236Z,56.43
2024-03-02T16:48:02.853Z,56.69
2024-03-02T16:50:30.335Z,56.96
2024-03-02T16:52:57.795Z,56.75
2024-03-02T16:55:26.595Z,56.76
2024-03-02T16:57:54.400Z,57.30
2024-03-02T17:00:22.374Z,58.75
2024-03-02T17:02:49.827Z,57.85
2024-03-02T17:05:23.309Z,59.31
2024-03-02T17:07:50.735Z,57.96
2024-03-02T17:10:18.295Z,58.85
2024-03-02T17:12:47.145Z,58.52
2024-03-02T17:15:14.691Z,59.82
2024-03-02T17:17:42.194Z,60.41
2024-03-02T17:20:10.688Z,60.25
2024-03-02T17:22:38.741Z,61.52
2024-03-02T17:25:07.187Z,62.14
2024-03-02T17:27:35.126Z,60.75
2024-03-02T17:30:04.659Z,60.53
2024-03-02T17:32:33.110Z,62.90
2024-03-02T17:35:01.159Z,61.17
2024-03-02T17:37:28.891Z,61.45
2024-03-02T17:39:56.555Z,60.78
2024-03-02T17:42:24.085Z,60.53
2024-03-02T17:44:51.563Z,61.24
2024-03-02T17:47:20.335Z,61.04
2024-03-02T17:49:47.794Z,61.20
2024-03-02T17:52:15.653Z,61.45
2024-03-02T17:54:43.209Z,61.61
2024-03-02T17:57:10.779Z,62.50
2024-03-02T17:59:38.761Z,61.88
2024-03-02T18:02:08.000Z,62.26
2024-03-02T18:04:37.071Z,63.28
2024-03-02T18:07:04.705Z,63.46
2024-03-02T18:09:31.267Z,63.17
2024-03-02T18:11:58.719Z,62.95
2024-03-02T18:14:26.401Z,63.27
2024-03-02T18:16:53.965Z,64.27
2024-03-02T18:19:21.491Z,64.71
2024-03-02T18:21:50.530Z,64.25
2024-03-02T18:24:18.553Z,64.59
2024-03-02T18:26:45.991Z,65.50
2024-03-02T18:29:13.916Z,64.96
2024-03-02T18:31:41.326Z,65.85
2024-03-02T18:34:08.870Z,65.26
2024-03-02T18:36:36.467Z,64.67
2024-03-02T18:39:06.750Z,65.90
2024-03-02T18:41:34.182Z,65.54
2024-03-02T18:44:01.615Z,65.67
2024-03-02T18:46:29.371Z,65.81
2024-03-02T18:48:56.978Z,66.14
2024-03-02T18:51:24.516Z,67.71
2024-03-02T18:53:51.912Z,66.56
2024-03-02T18:56:20.715Z,67.66
2024-03-02T18:58:48.264Z,67.05
2024-03-02T19:01:16.712Z,67.23
2024-03-02T19:03:44.241Z,66.69
2024-03-02T19:06:16.081Z,67.09
2024-03-02T19:08:43.557Z,66.96
2024-03-02T19:11:14.467Z,67.50
2024-03-02T19:13:43.325Z,68.14
2024-03-02T19:16:12.715Z,67.53
2024-03-02T19:18:40.779Z,69.32
2024-03-02T19:21:08.479Z,69.25
2024-03-02T19:23:40.381Z,69.83
2024-03-02T19:26:17.093Z,69.12
2024-03-02T19:28:45.937Z,68.31
2024-03-02T19:31:13.430Z,69.43
2024-03-02T19:33:40.926Z,68.15
2024-03-02T19:36:09.003Z,68.39
2024-03-02T19:38:36.509Z,68.44
2024-03-02T19:41:04.981Z,68.61
2024-03-02T19:43:32.632Z,67.82
2024-03-02T19:46:01.490Z,67.87
2024-03-02T19:48:29.468Z,68.11
2024-03-02T19:50:57.841Z,68.50
2024-03-02T19:53:26.461Z,69.95
2024-03-02T19:55:53.900Z,69.29
2024-03-02T19:58:21.532Z,69.20
2024-03-02T20:00:49.347Z,68.77
2024-03-02T20:03:18.103Z,68.94
2024-03-02T20:05:45.674Z,69.57
2024-03-02T20:08:13.116Z,69.29
2024-03-02T20:10:40.713Z,69.79
2024-03-02T20:13:08.662Z,69.55
2024-03-02T20:15:36.255Z,70.54
2024-03-02T20:18:03.888Z,70.62
2024-03-02T20:20:32.747Z,70.60
2024-03-02T20:23:00.207Z,72.79
2024-03-02T20:25:27.654Z,71.48
2024-03-02T20:27:55.968Z,71.16
2024-03-02T20:30:23.409Z,71.20
2024-03-02T20:32:50.865Z,73.39
2024-03-02T20:35:18.386Z,71.73
2024-03-02T20:37:47.571Z,72.58
2024-03-02T20:40:19.647Z,72.78
2024-03-02T20:42:47.976Z,73.32
2024-03-02T20:45:16.778Z,72.68
2024-03-02T20:47:46.124Z,72.67
2024-03-02T20:50:14.016Z,71.72
2024-03-02T20:52:41.580Z,72.36
2024-03-02T20:55:12.197Z,72.30
2024-03-02T20:57:41.123Z,72.28
2024-03-02T21:00:09.284Z,72.14
2024-03-02T21:02:36.877Z,71.54
2024-03-02T21:05:04.621Z,71.50
2024-03-02T21:07:35.529Z,72.04
2024-03-02T21:10:03.372Z,70.96
2024-03-02T21:12:32.262Z,71.41
2024-03-02T21:14:59.692Z,70.86
2024-03-02T21:17:28.275Z,71.39
2024-03-02T21:19:55.903Z,72.06
2024-03-02T21:22:23.628Z,73.29
2024-03-02T21:24:51.114Z,73.34
2024-03-02T21:27:21.027Z,73.13
2024-03-02T21:29:50.213Z,73.38
2024-03-02T21:32:17.641Z,75.96
2024-03-02T21:34:45.065Z,75.02
2024-03-02T21:37:12.627Z,75.21
2024-03-02T21:39:46.816Z,76.25
2024-03-02T21:42:15.016Z,74.74
2024-03-02T21:44:42.466Z,73.80
2024-03-02T21:47:11.232Z,74.36
2024-03-02T21:49:38.666Z,73.48
2024-03-02T21:52:06.526Z,73.61
2024-03-02T21:54:34.015Z,74.18
2024-03-02T21:57:03.410Z,76.20
2024-03-02T21:59:30.888Z,76.68
2024-03-02T22:01:58.455Z,74.98
2024-03-02T22:04:27.222Z,75.74
2024-03-02T22:06:54.829Z,76.67
2024-03-02T22:09:22.485Z,77.03
2024-03-02T22:11:49.945Z,76.81
2024-03-02T22:14:19.450Z,77.06
2024-03-02T22:16:46.932Z,77.09
2024-03-02T22:19:14.891Z,76.39
2024-03-02T22:21:43.691Z,76.44
2024-03-02T22:24:14.238Z,76.56
2024-03-02T22:26:41.710Z,76.13
2024-03-02T22:29:09.180Z,75.30
2024-03-02T22:31:36.933Z,75.75
2024-03-02T22:34:04.617Z,75.76
2024-03-02T22:36:34.377Z,75.04
2024-03-02T22:39:03.123Z,76.16
2024-03-02T22:41:30.862Z,75.37
2024-03-02T22:43:59.295Z,74.55
2024-03-02T22:46:26.839Z,75.69
2024-03-02T22:48:55.189Z,74.42
2024-03-02T22:51:23.211Z,75.47
2024-03-02T22:53:50.681Z,74.60
2024-03-02T22:56:19.844Z,73.93
2024-03-02T22:58:47.304Z,75.16
2024-03-02T23:01:15.052Z,74.27
2024-03-02T23:03:43.058Z,74.12
2024-03-02T23:06:10.717Z,75.71
2024-03-02T23:08:38.305Z,75.95
2024-03-02T23:11:07.630Z,75.03
2024-03-02T23:13:36.992Z,73.86
2024-03-02T23:16:05.480Z,74.25
2024-03-02T23:18:33.024Z,73.61
2024-03-02T23:21:00.480Z,75.24
2024-03-02T23:23:27.887Z,74.23
2024-03-02T23:25:55.449Z,74.21
2024-03-02T23:28:22.958Z,75.15
2024-03-02T23:30:51.746Z,73.82
2024-03-02T23:33:19.602Z,74.31
2024-03-02T23:35:47.512Z,74.69
2024-03-02T23:38:15.207Z,73.59
2024-03-02T23:40:58.537Z,74.72
2024-03-02T23:43:25.939Z,75.74
2024-03-02T23:45:54.747Z,74.58
2024-03-02T23:48:22.221Z,74.84
2024-03-02T23:50:49.600Z,75.88
2024-03-02T23:53:17.035Z,74.82
2024-03-02T23:55:51.860Z,74.46
2024-03-02T23:58:20.895Z,74.78
